Time;durP1;ratioP1;P1;durP2;ratioP2;P2;SDS_P1;SDS_P2;PMS_P1;PMS_P2;Temp;Humidity;BMP_temperature;BMP_pressure;BME280_temperature;BME280_humidity;BME280_pressure;Samples;Min_cycle;Max_cycle;Signal;HPM_P1;HPM_P2
2022/10/31 00:00:52;;;;;;;;;;;;;;;;;;5034798;28;20261;-80
2022/10/31 00:03:18;;;;;;;;;;;;;;;;;;5052403;28;20365;-80
2022/10/31 00:05:44;;;;;;;;;;;;;;;;;;5038675;28;19915;-80
2022/10/31 00:08:10;;;;;;;;;;;;;;;;;;5038689;28;19909;-79
2022/10/31 00:10:36;;;;;;;;;;;;;;;;;;5056299;28;20016;-80
2022/10/31 00:13:02;;;;;;;;;;;;;;;;;;5038593;28;19909;-80
2022/10/31 00:15:28;;;;;;;;;;;;;;;;;;5038147;28;19925;-80
2022/10/31 00:17:53;;;;;;;;;;;;;;;;;;5038232;28;19908;-79
2022/10/31 00:20:19;;;;;;;;;;;;;;;;;;5038297;28;19905;-79
2022/10/31 00:22:45;;;;;;;;;;;;;;;;;;5038301;28;20323;-79
2022/10/31 00:25:11;;;;;;;;;;;;;;;;;;5038212;28;20318;-79
2022/10/31 00:27:37;;;;;;;;;;;;;;;;;;5038092;28;20356;-79
2022/10/31 00:30:03;;;;;;;;;;;;;;;;;;5037915;28;19909;-80
2022/10/31 00:32:30;;;;;;;;;;;;;;;;;;5038010;28;19967;-79
2022/10/31 00:34:56;;;;;;;;;;;;;;;;;;5055896;28;19916;-79
2022/10/31 00:37:21;;;;;;;;;;;;;;;;;;5055558;28;19983;-79
2022/10/31 00:39:49;;;;;;;;;;;;;;;;;;5037942;28;19960;-80
2022/10/31 00:42:15;;;;;;;;;;;;;;;;;;5055594;28;19916;-79
2022/10/31 00:44:41;;;;;;;;;;;;;;;;;;5055121;28;19908;-80
2022/10/31 00:47:07;;;;;;;;;;;;;;;;;;5037729;28;19909;-79
2022/10/31 00:49:33;;;;;;;;;;;;;;;;;;5055579;28;19912;-79
2022/10/31 00:51:59;;;;;;;;;;;;;;;;;;5055453;28;19962;-79
2022/10/31 00:54:25;;;;;;;;;;;;;;;;;;5037429;28;19935;-80
2022/10/31 00:56:50;;;;;;;;;;;;;;;;;;5037575;28;19947;-79
2022/10/31 00:59:16;;;;;;;;;;;;;;;;;;5037584;28;19909;-80
2022/10/31 01:01:42;;;;;;;;;;;;;;;;;;5037482;28;19916;-79
2022/10/31 01:04:08;;;;;;;;;;;;;;;;;;5055050;28;19932;-79
2022/10/31 01:06:34;;;;;;;;;;;;;;;;;;5037410;28;19909;-80
2022/10/31 01:09:00;;;;;;;;;;;;;;;;;;5037062;28;19916;-79
2022/10/31 01:11:26;;;;;;;;;;;;;;;;;;5055181;28;19995;-79
2022/10/31 01:13:52;;;;;;;;;;;;;;;;;;5037308;28;19959;-80
2022/10/31 01:16:18;;;;;;;;;;;;;;;;;;5054396;28;19912;-79
2022/10/31 01:18:43;;;;;;;;;;;;;;;;;;5054596;28;19908;-79
2022/10/31 01:21:09;;;;;;;;;;;;;;;;;;5036955;28;19912;-79
2022/10/31 01:23:35;;;;;;;;;;;;;;;;;;5037010;28;20605;-79
2022/10/31 01:26:01;;;;;;;;;;;;;;;;;;5054374;28;19909;-79
2022/10/31 01:28:27;;;;;;;;;;;;;;;;;;5054808;28;19909;-80
2022/10/31 01:30:53;;;;;;;;;;;;;;;;;;5037008;28;19913;-79
2022/10/31 01:33:19;;;;;;;;;;;;;;;;;;5054717;28;19909;-79
2022/10/31 01:35:45;;;;;;;;;;;;;;;;;;5036597;28;19928;-79
2022/10/31 01:38:11;;;;;;;;;;;;;;;;;;5036342;28;19913;-80
2022/10/31 01:40:37;;;;;;;;;;;;;;;;;;5036307;28;20407;-79
2022/10/31 01:43:03;;;;;;;;;;;;;;;;;;5036366;28;20388;-80
2022/10/31 01:45:29;;;;;;;;;;;;;;;;;;5036434;28;20293;-79
2022/10/31 01:47:55;;;;;;;;;;;;;;;;;;5036392;28;20508;-79
2022/10/31 01:50:20;;;;;;;;;;;;;;;;;;5036341;28;20289;-79
2022/10/31 01:52:46;;;;;;;;;;;;;;;;;;5036813;28;19908;-80
2022/10/31 01:55:12;;;;;;;;;;;;;;;;;;5036563;28;20019;-80
2022/10/31 01:57:38;;;;;;;;;;;;;;;;;;5036210;28;19952;-80
2022/10/31 02:00:04;;;;;;;;;;;;;;;;;;5036373;28;19913;-80
2022/10/31 02:02:30;;;;;;;;;;;;;;;;;;5054198;28;19932;-79
2022/10/31 02:04:56;;;;;;;;;;;;;;;;;;5054276;28;19935;-79
2022/10/31 02:07:22;;;;;;;;;;;;;;;;;;5036324;28;19909;-80
2022/10/31 02:09:48;;;;;;;;;;;;;;;;;;5036143;28;20365;-79
2022/10/31 02:12:14;;;;;;;;;;;;;;;;;;5036212;28;20343;-79
2022/10/31 02:14:40;;;;;;;;;;;;;;;;;;5054008;28;20323;-79
2022/10/31 02:17:06;;;;;;;;;;;;;;;;;;5056072;22;20199;-76
2022/10/31 02:19:31;;;;;;;;;;;;;;;;;;5051824;28;20399;-76
2022/10/31 02:21:57;;;;;;;;;;;;;;;;;;5052378;28;19983;-77
2022/10/31 02:24:23;;;;;;;;;;;;;;;;;;5053201;28;20377;-76
2022/10/31 02:26:49;;;;;;;;;;;;;;;;;;5047948;28;19909;-76
2022/10/31 02:29:15;;;;;;;;;;;;;;;;;;5032817;28;20277;-78
2022/10/31 02:31:41;;;;;;;;;;;;;;;;;;5033475;28;19962;-79
2022/10/31 02:34:07;;;;;;;;;;;;;;;;;;5032101;28;20296;-78
2022/10/31 02:36:33;;;;;;;;;;;;;;;;;;5033583;28;19960;-78
2022/10/31 02:38:58;;;;;;;;;;;;;;;;;;5032394;28;19916;-75
2022/10/31 02:41:24;;;;;;;;;;;;;;;;;;5032126;28;19920;-76
2022/10/31 02:43:50;;;;;;;;;;;;;;;;;;5032401;28;19959;-76
2022/10/31 02:46:16;;;;;;;;;;;;;;;;;;5033185;28;19913;-79
2022/10/31 02:48:42;;;;;;;;;;;;;;;;;;5033053;28;20008;-79
2022/10/31 02:51:08;;;;;;;;;;;;;;;;;;5033327;28;19909;-78
2022/10/31 02:53:34;;;;;;;;;;;;;;;;;;5033196;28;19917;-78
2022/10/31 02:56:00;;;;;;;;;;;;;;;;;;5031199;28;19913;-77
2022/10/31 02:58:26;;;;;;;;;;;;;;;;;;5032882;28;19909;-77
2022/10/31 03:00:51;;;;;;;;;;;;;;;;;;5030978;28;20397;-79
2022/10/31 03:03:17;;;;;;;;;;;;;;;;;;5031237;28;19909;-78
2022/10/31 03:05:43;;;;;;;;;;;;;;;;;;5030296;28;19909;-77
2022/10/31 03:08:09;;;;;;;;;;;;;;;;;;5030892;28;20003;-77
2022/10/31 03:10:36;;;;;;;;;;;;;;;;;;5031899;28;19909;-78
2022/10/31 03:13:01;;;;;;;;;;;;;;;;;;5031665;28;20000;-77
2022/10/31 03:15:27;;;;;;;;;;;;;;;;;;5032777;28;20551;-78
2022/10/31 03:17:53;;;;;;;;;;;;;;;;;;5031429;28;20432;-77
2022/10/31 03:20:19;;;;;;;;;;;;;;;;;;5033140;28;20003;-77
2022/10/31 03:22:45;;;;;;;;;;;;;;;;;;5031456;28;19996;-78
2022/10/31 03:25:11;;;;;;;;;;;;;;;;;;5031290;28;20444;-78
2022/10/31 03:27:37;;;;;;;;;;;;;;;;;;5031146;28;19913;-78
2022/10/31 03:30:03;;;;;;;;;;;;;;;;;;5032879;28;20401;-78
2022/10/31 03:32:28;;;;;;;;;;;;;;;;;;5031337;28;19909;-78
2022/10/31 03:34:54;;;;;;;;;;;;;;;;;;5031156;28;19920;-78
2022/10/31 03:37:20;;;;;;;;;;;;;;;;;;5031182;28;20043;-77
2022/10/31 03:39:46;;;;;;;;;;;;;;;;;;5036250;28;19920;-77
2022/10/31 03:42:12;;;;;;;;;;;;;;;;;;5039180;28;19996;-77
2022/10/31 03:44:38;;;;;;;;;;;;;;;;;;5039018;28;19913;-77
2022/10/31 03:47:04;;;;;;;;;;;;;;;;;;5037749;28;19909;-78
2022/10/31 03:49:30;;;;;;;;;;;;;;;;;;5038989;28;19909;-77
2022/10/31 03:51:56;;;;;;;;;;;;;;;;;;5037879;28;20121;-78
2022/10/31 03:54:21;;;;;;;;;;;;;;;;;;5038966;28;19909;-77
2022/10/31 03:56:47;;;;;;;;;;;;;;;;;;5038891;28;19963;-77
2022/10/31 03:59:13;;;;;;;;;;;;;;;;;;5037770;28;19909;-78
2022/10/31 04:01:39;;;;;;;;;;;;;;;;;;5039130;28;20000;-78
2022/10/31 04:04:05;;;;;;;;;;;;;;;;;;5038971;28;19909;-78
2022/10/31 04:06:31;;;;;;;;;;;;;;;;;;5039060;28;19909;-79
2022/10/31 04:08:57;;;;;;;;;;;;;;;;;;5040334;28;19920;-79
2022/10/31 04:11:23;;;;;;;;;;;;;;;;;;5040288;28;20000;-78
2022/10/31 04:13:49;;;;;;;;;;;;;;;;;;5042239;28;19916;-79
2022/10/31 04:16:14;;;;;;;;;;;;;;;;;;5041663;28;19959;-78
2022/10/31 04:18:40;;;;;;;;;;;;;;;;;;5040228;28;20043;-78
2022/10/31 04:21:06;;;;;;;;;;;;;;;;;;5041624;28;20391;-78
2022/10/31 04:23:32;;;;;;;;;;;;;;;;;;5042293;28;19916;-79
2022/10/31 04:25:58;;;;;;;;;;;;;;;;;;5040808;28;20340;-79
2022/10/31 04:28:24;;;;;;;;;;;;;;;;;;5041186;28;19987;-78
2022/10/31 04:30:50;;;;;;;;;;;;;;;;;;5040801;28;19917;-79
2022/10/31 04:33:16;;;;;;;;;;;;;;;;;;5040699;28;20031;-79
2022/10/31 04:35:41;;;;;;;;;;;;;;;;;;5042073;28;19920;-79
2022/10/31 04:38:07;;;;;;;;;;;;;;;;;;5042164;28;19948;-79
2022/10/31 04:40:33;;;;;;;;;;;;;;;;;;5041323;28;20373;-78
2022/10/31 04:42:59;;;;;;;;;;;;;;;;;;5042405;28;20381;-79
2022/10/31 04:45:25;;;;;;;;;;;;;;;;;;5041913;28;19909;-78
2022/10/31 04:47:51;;;;;;;;;;;;;;;;;;5041969;28;20363;-78
2022/10/31 04:50:17;;;;;;;;;;;;;;;;;;5038042;28;19960;-77
2022/10/31 04:52:43;;;;;;;;;;;;;;;;;;5035463;28;20267;-77
2022/10/31 04:55:09;;;;;;;;;;;;;;;;;;5035520;28;19913;-78
2022/10/31 04:57:34;;;;;;;;;;;;;;;;;;5035383;28;20556;-77
2022/10/31 05:00:00;;;;;;;;;;;;;;;;;;5034362;28;19912;-78
2022/10/31 05:02:26;;;;;;;;;;;;;;;;;;5033683;28;20331;-78
2022/10/31 05:04:52;;;;;;;;;;;;;;;;;;5035321;28;19956;-77
2022/10/31 05:07:18;;;;;;;;;;;;;;;;;;5033782;28;19913;-77
2022/10/31 05:09:44;;;;;;;;;;;;;;;;;;5033973;28;19909;-77
2022/10/31 05:12:10;;;;;;;;;;;;;;;;;;5032927;28;20285;-77
2022/10/31 05:14:36;;;;;;;;;;;;;;;;;;5034891;28;19917;-77
2022/10/31 05:17:01;;;;;;;;;;;;;;;;;;5033207;28;20345;-77
2022/10/31 05:19:27;;;;;;;;;;;;;;;;;;5033454;28;19917;-78
2022/10/31 05:21:53;;;;;;;;;;;;;;;;;;5034682;28;20441;-77
2022/10/31 05:24:21;;;;;;;;;;;;;;;;;;5034612;28;19909;-78
2022/10/31 05:26:47;;;;;;;;;;;;;;;;;;5032451;28;19957;-76
2022/10/31 05:29:13;;;;;;;;;;;;;;;;;;5034592;28;19949;-77
2022/10/31 05:31:39;;;;;;;;;;;;;;;;;;5017156;28;19916;-76
2022/10/31 05:34:05;;;;;;;;;;;;;;;;;;5017479;28;20039;-78
2022/10/31 05:36:31;;;;;;;;;;;;;;;;;;5015620;28;19919;-77
2022/10/31 05:38:56;;;;;;;;;;;;;;;;;;5033030;28;20420;-78
2022/10/31 05:41:22;;;;;;;;;;;;;;;;;;5032878;28;19916;-78
2022/10/31 05:43:48;;;;;;;;;;;;;;;;;;5032819;28;20430;-77
2022/10/31 05:46:14;;;;;;;;;;;;;;;;;;5033839;28;19913;-77
2022/10/31 05:48:40;;;;;;;;;;;;;;;;;;5033749;28;19906;-77
2022/10/31 05:51:06;;;;;;;;;;;;;;;;;;5034241;28;20103;-77
2022/10/31 05:53:32;;;;;;;;;;;;;;;;;;5034437;28;19905;-77
2022/10/31 05:55:58;;;;;;;;;;;;;;;;;;5032510;28;19913;-77
2022/10/31 05:58:23;;;;;;;;;;;;;;;;;;5034066;28;20047;-77
2022/10/31 06:00:49;;;;;;;;;;;;;;;;;;5034284;28;20383;-78
2022/10/31 06:03:15;;;;;;;;;;;;;;;;;;5035819;28;19909;-78
2022/10/31 06:05:41;;;;;;;;;;;;;;;;;;5032718;28;19932;-79
2022/10/31 06:08:07;;;;;;;;;;;;;;;;;;5033910;28;19916;-79
2022/10/31 06:10:33;;;;;;;;;;;;;;;;;;5032502;28;19936;-78
2022/10/31 06:12:59;;;;;;;;;;;;;;;;;;5032635;28;19959;-79
2022/10/31 06:15:25;;;;;;;;;;;;;;;;;;5032592;28;19917;-79
2022/10/31 06:17:51;;;;;;;;;;;;;;;;;;5031254;28;19924;-78
2022/10/31 06:20:16;;;;;;;;;;;;;;;;;;5033931;28;19964;-79
2022/10/31 06:22:42;;;;;;;;;;;;;;;;;;5032769;28;19909;-79
2022/10/31 06:25:08;;;;;;;;;;;;;;;;;;5033388;28;19909;-78
2022/10/31 06:27:34;;;;;;;;;;;;;;;;;;5032179;28;19909;-78
2022/10/31 06:30:00;;;;;;;;;;;;;;;;;;5032931;28;19905;-78
2022/10/31 06:32:26;;;;;;;;;;;;;;;;;;5032458;28;20392;-77
2022/10/31 06:34:52;;;;;;;;;;;;;;;;;;5033455;28;19913;-77
2022/10/31 06:37:18;;;;;;;;;;;;;;;;;;5031303;28;20514;-77
2022/10/31 06:39:44;;;;;;;;;;;;;;;;;;5013427;28;19963;-77
2022/10/31 06:42:09;;;;;;;;;;;;;;;;;;5012223;28;20341;-77
2022/10/31 06:44:35;;;;;;;;;;;;;;;;;;5012152;28;19965;-77
2022/10/31 06:47:01;;;;;;;;;;;;;;;;;;5013300;28;19916;-76
2022/10/31 06:49:27;;;;;;;;;;;;;;;;;;5013426;28;20408;-78
2022/10/31 06:51:53;;;;;;;;;;;;;;;;;;5024981;28;19913;-78
2022/10/31 06:54:19;;;;;;;;;;;;;;;;;;5032770;28;20377;-77
2022/10/31 06:56:45;;;;;;;;;;;;;;;;;;5008384;28;19924;-77
2022/10/31 06:59:11;;;;;;;;;;;;;;;;;;5020118;28;19909;-77
2022/10/31 07:01:37;;;;;;;;;;;;;;;;;;5037081;28;19918;-78
2022/10/31 07:04:03;;;;;;;;;;;;;;;;;;5044425;28;19920;-76
2022/10/31 07:06:28;;;;;;;;;;;;;;;;;;5031914;28;19920;-76
2022/10/31 07:08:54;;;;;;;;;;;;;;;;;;5045959;28;20062;-77
2022/10/31 07:11:20;;;;;;;;;;;;;;;;;;5034082;28;20337;-76
2022/10/31 07:13:46;;;;;;;;;;;;;;;;;;5031371;28;19920;-76
2022/10/31 07:16:13;;;;;;;;;;;;;;;;;;5032233;28;20289;-78
2022/10/31 07:18:39;;;;;;;;;;;;;;;;;;5031810;28;19917;-77
2022/10/31 07:21:05;;;;;;;;;;;;;;;;;;5032422;28;19916;-76
2022/10/31 07:23:31;;;;;;;;;;;;;;;;;;5032674;28;20293;-77
2022/10/31 07:25:57;;;;;;;;;;;;;;;;;;5040491;28;19921;-76
2022/10/31 07:28:23;;;;;;;;;;;;;;;;;;5027028;28;19909;-76
2022/10/31 07:30:49;;;;;;;;;;;;;;;;;;5032424;28;19944;-77
2022/10/31 07:33:14;;;;;;;;;;;;;;;;;;5032622;28;20007;-77
2022/10/31 07:35:40;;;;;;;;;;;;;;;;;;5036076;28;19972;-78
2022/10/31 07:38:06;;;;;;;;;;;;;;;;;;5011045;28;19913;-81
2022/10/31 07:40:32;;;;;;;;;;;;;;;;;;5035837;28;19916;-80
2022/10/31 07:42:58;;;;;;;;;;;;;;;;;;5028453;28;19914;-80
2022/10/31 07:45:24;;;;;;;;;;;;;;;;;;5014553;28;19915;-80
2022/10/31 07:47:50;;;;;;;;;;;;;;;;;;5024744;28;19932;-83
2022/10/31 07:50:16;;;;;;;;;;;;;;;;;;5035312;28;19912;-82
2022/10/31 07:52:42;;;;;;;;;;;;;;;;;;5036968;28;20016;-82
2022/10/31 07:55:08;;;;;;;;;;;;;;;;;;5035028;28;19967;-81
2022/10/31 07:57:33;;;;;;;;;;;;;;;;;;5034390;28;19909;-81
2022/10/31 07:59:59;;;;;;;;;;;;;;;;;;5034437;28;19948;-81
2022/10/31 08:02:25;;;;;;;;;;;;;;;;;;5035458;28;20361;-79
2022/10/31 08:04:51;;;;;;;;;;;;;;;;;;5034312;28;19909;-79
2022/10/31 08:07:17;;;;;;;;;;;;;;;;;;5034100;28;19989;-77
2022/10/31 08:09:43;;;;;;;;;;;;;;;;;;5033297;28;20015;-77
2022/10/31 08:12:09;;;;;;;;;;;;;;;;;;5033469;28;19909;-78
2022/10/31 08:14:35;;;;;;;;;;;;;;;;;;5035982;28;19915;-78
2022/10/31 08:17:00;;;;;;;;;;;;;;;;;;5056041;22;19923;-78
2022/10/31 08:19:26;;;;;;;;;;;;;;;;;;5008612;28;19972;-77
2022/10/31 08:21:54;;;;;;;;;;;;;;;;;;5011076;28;19913;-77
2022/10/31 08:24:20;;;;;;;;;;;;;;;;;;5010943;28;19959;-78
2022/10/31 08:26:46;;;;;;;;;;;;;;;;;;5014559;28;19910;-78
2022/10/31 08:29:12;;;;;;;;;;;;;;;;;;5014619;28;19910;-77
2022/10/31 08:31:38;;;;;;;;;;;;;;;;;;5011284;28;20405;-78
2022/10/31 08:34:04;;;;;;;;;;;;;;;;;;4996610;28;19909;-78
2022/10/31 08:36:30;;;;;;;;;;;;;;;;;;5014676;28;20044;-78
2022/10/31 08:38:56;;;;;;;;;;;;;;;;;;5014769;28;20024;-77
2022/10/31 08:41:22;;;;;;;;;;;;;;;;;;5010270;28;19909;-77
2022/10/31 08:43:48;;;;;;;;;;;;;;;;;;5031152;28;19918;-79
2022/10/31 08:46:13;;;;;;;;;;;;;;;;;;5030832;28;20448;-80
2022/10/31 08:48:39;;;;;;;;;;;;;;;;;;5031276;28;19909;-80
2022/10/31 08:51:05;;;;;;;;;;;;;;;;;;5030776;28;20385;-80
2022/10/31 08:53:31;;;;;;;;;;;;;;;;;;5030953;28;19956;-79
2022/10/31 08:55:57;;;;;;;;;;;;;;;;;;5031021;28;20413;-81
2022/10/31 08:58:23;;;;;;;;;;;;;;;;;;5030523;28;20317;-82
2022/10/31 09:00:49;;;;;;;;;;;;;;;;;;5030659;28;19910;-79
2022/10/31 09:03:15;;;;;;;;;;;;;;;;;;5030723;28;19960;-79
2022/10/31 09:05:41;;;;;;;;;;;;;;;;;;5015423;28;19916;-80
2022/10/31 09:08:06;;;;;;;;;;;;;;;;;;5027078;28;21488;-78
2022/10/31 09:10:32;;;;;;;;;;;;;;;;;;5030990;28;19909;-76
2022/10/31 09:12:58;;;;;;;;;;;;;;;;;;5015315;28;19909;-81
2022/10/31 09:15:24;;;;;;;;;;;;;;;;;;5030347;28;19914;-79
2022/10/31 09:17:50;;;;;;;;;;;;;;;;;;5030049;28;20021;-78
2022/10/31 09:20:16;;;;;;;;;;;;;;;;;;5030242;28;19912;-78
2022/10/31 09:22:42;;;;;;;;;;;;;;;;;;5015207;28;19914;-78
2022/10/31 09:25:08;;;;;;;;;;;;;;;;;;5029555;28;19910;-78
2022/10/31 09:27:34;;;;;;;;;;;;;;;;;;5030066;28;19916;-77
2022/10/31 09:30:00;;;;;;;;;;;;;;;;;;5030252;28;19959;-76
2022/10/31 09:32:25;;;;;;;;;;;;;;;;;;5014669;28;19945;-76
2022/10/31 09:34:51;;;;;;;;;;;;;;;;;;5015493;28;19913;-77
2022/10/31 09:37:17;;;;;;;;;;;;;;;;;;5016419;28;19916;-76
2022/10/31 09:39:43;;;;;;;;;;;;;;;;;;5031329;28;20403;-77
2022/10/31 09:42:09;;;;;;;;;;;;;;;;;;5032843;28;19963;-77
2022/10/31 09:44:35;;;;;;;;;;;;;;;;;;5016034;28;20008;-76
2022/10/31 09:47:01;;;;;;;;;;;;;;;;;;5030961;28;19909;-79
2022/10/31 09:49:27;;;;;;;;;;;;;;;;;;5030309;28;19917;-79
2022/10/31 09:51:52;;;;;;;;;;;;;;;;;;5029683;28;19963;-79
2022/10/31 09:54:18;;;;;;;;;;;;;;;;;;5014044;28;20476;-80
2022/10/31 09:56:44;;;;;;;;;;;;;;;;;;5029580;28;19921;-79
2022/10/31 09:59:10;;;;;;;;;;;;;;;;;;5028983;28;20286;-79
2022/10/31 10:01:36;;;;;;;;;;;;;;;;;;5029752;28;19909;-78
2022/10/31 10:04:02;;;;;;;;;;;;;;;;;;5029460;28;19910;-77
2022/10/31 10:06:28;;;;;;;;;;;;;;;;;;5013679;28;19914;-78
2022/10/31 10:08:54;;;;;;;;;;;;;;;;;;5025824;28;19917;-78
2022/10/31 10:11:20;;;;;;;;;;;;;;;;;;5000330;28;19918;-78
2022/10/31 10:13:45;;;;;;;;;;;;;;;;;;5011461;28;19948;-80
2022/10/31 10:16:11;;;;;;;;;;;;;;;;;;5021853;28;19914;-81
2022/10/31 10:18:37;;;;;;;;;;;;;;;;;;5031959;28;19923;-80
2022/10/31 10:21:03;;;;;;;;;;;;;;;;;;5028347;28;20453;-77
2022/10/31 10:23:29;;;;;;;;;;;;;;;;;;5020169;28;20240;-76
2022/10/31 10:25:55;;;;;;;;;;;;;;;;;;5016437;28;20004;-76
2022/10/31 10:28:21;;;;;;;;;;;;;;;;;;5014918;28;20437;-77
2022/10/31 10:30:47;;;;;;;;;;;;;;;;;;5016618;28;19956;-76
2022/10/31 10:33:13;;;;;;;;;;;;;;;;;;5014141;28;19909;-78
2022/10/31 10:35:39;;;;;;;;;;;;;;;;;;5014557;28;19967;-79
2022/10/31 10:38:05;;;;;;;;;;;;;;;;;;5027171;28;19916;-75
2022/10/31 10:40:30;;;;;;;;;;;;;;;;;;5026768;28;19905;-75
2022/10/31 10:48:26;;;;;;;;;;;;;;;;;;5016074;28;20385;-76
2022/10/31 10:50:52;;;;;;;;;;;;;;;;;;5015129;28;19956;-78
2022/10/31 10:53:21;;;;;;;;;;;;;;;;;;5014403;28;19913;-78
2022/10/31 10:55:47;;;;;;;;;;;;;;;;;;5015316;28;19960;-78
2022/10/31 10:58:12;;;;;;;;;;;;;;;;;;5013447;28;19913;-78
2022/10/31 11:00:38;;;;;;;;;;;;;;;;;;5013243;28;20362;-78
2022/10/31 11:03:05;;;;;;;;;;;;;;;;;;5013152;28;19909;-78
2022/10/31 11:05:30;;;;;;;;;;;;;;;;;;5011887;28;19910;-79
2022/10/31 11:07:56;;;;;;;;;;;;;;;;;;5011716;28;20384;-78
2022/10/31 11:10:22;;;;;;;;;;;;;;;;;;5013264;28;19956;-77
2022/10/31 11:12:48;;;;;;;;;;;;;;;;;;5011607;28;19957;-77
2022/10/31 11:15:14;;;;;;;;;;;;;;;;;;5011536;28;19914;-77
2022/10/31 11:17:40;;;;;;;;;;;;;;;;;;5011358;28;19925;-77
2022/10/31 11:20:06;;;;;;;;;;;;;;;;;;5011876;28;20022;-81
2022/10/31 11:22:32;;;;;;;;;;;;;;;;;;5011780;28;20255;-81
2022/10/31 11:24:58;;;;;;;;;;;;;;;;;;5011985;28;19913;-78
2022/10/31 11:27:23;;;;;;;;;;;;;;;;;;5011738;28;19979;-79
2022/10/31 11:29:49;;;;;;;;;;;;;;;;;;5011963;28;19909;-80
2022/10/31 11:32:15;;;;;;;;;;;;;;;;;;5011798;28;19916;-78
2022/10/31 11:34:41;;;;;;;;;;;;;;;;;;5011606;28;19909;-80
2022/10/31 11:37:07;;;;;;;;;;;;;;;;;;5011689;28;19909;-76
2022/10/31 11:39:33;;;;;;;;;;;;;;;;;;5011429;28;19984;-76
2022/10/31 11:41:59;;;;;;;;;;;;;;;;;;5011772;28;20370;-81
2022/10/31 11:44:25;;;;;;;;;;;;;;;;;;5012407;28;19957;-80
2022/10/31 11:46:51;;;;;;;;;;;;;;;;;;5011655;28;19910;-79
2022/10/31 11:49:16;;;;;;;;;;;;;;;;;;5012133;28;19909;-83
2022/10/31 11:51:42;;;;;;;;;;;;;;;;;;5000382;28;19914;-77
2022/10/31 11:54:08;;;;;;;;;;;;;;;;;;4992105;28;20421;-82
2022/10/31 11:56:34;;;;;;;;;;;;;;;;;;4991925;28;19914;-79
2022/10/31 11:59:00;;;;;;;;;;;;;;;;;;4992297;28;19910;-78
2022/10/31 12:01:26;;;;;;;;;;;;;;;;;;4996772;28;19906;-80
2022/10/31 12:03:52;;;;;;;;;;;;;;;;;;4996689;28;19916;-76
2022/10/31 12:06:18;;;;;;;;;;;;;;;;;;4995334;28;19910;-77
2022/10/31 12:08:44;;;;;;;;;;;;;;;;;;4996947;28;19910;-77
2022/10/31 12:11:10;;;;;;;;;;;;;;;;;;4997420;28;19997;-75
2022/10/31 12:13:36;;;;;;;;;;;;;;;;;;4996653;28;19964;-77
2022/10/31 12:16:01;;;;;;;;;;;;;;;;;;4996719;28;19949;-76
2022/10/31 12:18:27;;;;;;;;;;;;;;;;;;4998825;28;20009;-75
2022/10/31 12:20:53;;;;;;;;;;;;;;;;;;4998908;28;19913;-75
2022/10/31 12:23:19;;;;;;;;;;;;;;;;;;4998795;28;19909;-75
2022/10/31 12:25:45;;;;;;;;;;;;;;;;;;5001438;28;19918;-77
2022/10/31 12:28:11;;;;;;;;;;;;;;;;;;5040850;28;19916;-76
2022/10/31 12:30:37;;;;;;;;;;;;;;;;;;5005820;28;19916;-76
2022/10/31 12:33:03;;;;;;;;;;;;;;;;;;5007499;28;20362;-77
2022/10/31 12:35:29;;;;;;;;;;;;;;;;;;5006419;28;19920;-76
2022/10/31 12:37:55;;;;;;;;;;;;;;;;;;5003848;28;20004;-76
2022/10/31 12:40:20;;;;;;;;;;;;;;;;;;5007313;28;20290;-74
2022/10/31 12:42:46;;;;;;;;;;;;;;;;;;5005535;28;19914;-75
2022/10/31 12:45:12;;;;;;;;;;;;;;;;;;5004968;28;19909;-75
2022/10/31 12:47:38;;;;;;;;;;;;;;;;;;5004486;28;19984;-75
2022/10/31 12:50:04;;;;;;;;;;;;;;;;;;4994752;28;19910;-79
2022/10/31 12:52:31;;;;;;;;;;;;;;;;;;4994980;28;19910;-79
2022/10/31 12:54:57;;;;;;;;;;;;;;;;;;4994825;28;20016;-78
2022/10/31 12:57:23;;;;;;;;;;;;;;;;;;4994724;28;20441;-79
2022/10/31 12:59:49;;;;;;;;;;;;;;;;;;4996035;28;19909;-79
2022/10/31 13:02:15;;;;;;;;;;;;;;;;;;4994776;28;19964;-79
2022/10/31 13:04:41;;;;;;;;;;;;;;;;;;4995872;28;20096;-79
2022/10/31 13:07:08;;;;;;;;;;;;;;;;;;4994631;28;19910;-78
2022/10/31 13:09:34;;;;;;;;;;;;;;;;;;4994452;28;19921;-78
2022/10/31 13:11:59;;;;;;;;;;;;;;;;;;4993756;28;19910;-78
2022/10/31 13:14:25;;;;;;;;;;;;;;;;;;4998819;28;19914;-78
2022/10/31 13:16:51;;;;;;;;;;;;;;;;;;5005344;28;19965;-80
2022/10/31 13:19:17;;;;;;;;;;;;;;;;;;5005673;28;19918;-78
2022/10/31 13:21:43;;;;;;;;;;;;;;;;;;5002876;28;19940;-77
2022/10/31 13:24:09;;;;;;;;;;;;;;;;;;5001702;28;19921;-79
2022/10/31 13:26:35;;;;;;;;;;;;;;;;;;5007864;28;19933;-80
2022/10/31 13:29:01;;;;;;;;;;;;;;;;;;5012593;28;19961;-79
2022/10/31 13:31:27;;;;;;;;;;;;;;;;;;5004265;28;19914;-78
2022/10/31 13:33:53;;;;;;;;;;;;;;;;;;5010327;28;19917;-79
2022/10/31 13:36:19;;;;;;;;;;;;;;;;;;5010901;28;19913;-77
2022/10/31 13:38:44;;;;;;;;;;;;;;;;;;5001877;28;20271;-79
2022/10/31 13:41:10;;;;;;;;;;;;;;;;;;5009264;28;19909;-79
2022/10/31 13:43:36;;;;;;;;;;;;;;;;;;4998306;28;19918;-78
2022/10/31 13:46:02;;;;;;;;;;;;;;;;;;5000136;28;19920;-78
2022/10/31 13:48:28;;;;;;;;;;;;;;;;;;5002729;28;19920;-78
2022/10/31 13:50:54;;;;;;;;;;;;;;;;;;4994051;28;19920;-77
2022/10/31 13:53:20;;;;;;;;;;;;;;;;;;5009828;28;19945;-79
2022/10/31 13:55:49;;;;;;;;;;;;;;;;;;5018061;28;19913;-79
2022/10/31 13:58:15;;;;;;;;;;;;;;;;;;5025888;28;19914;-79
2022/10/31 14:00:41;;;;;;;;;;;;;;;;;;5024870;28;19914;-80
2022/10/31 14:03:07;;;;;;;;;;;;;;;;;;5011137;28;19928;-80
2022/10/31 14:05:33;;;;;;;;;;;;;;;;;;5012248;28;20004;-79
2022/10/31 14:07:58;;;;;;;;;;;;;;;;;;5011605;28;20282;-78
2022/10/31 14:10:24;;;;;;;;;;;;;;;;;;5014445;28;19913;-79
2022/10/31 14:12:50;;;;;;;;;;;;;;;;;;5011678;28;19945;-77
2022/10/31 14:15:16;;;;;;;;;;;;;;;;;;5027621;28;19944;-80
2022/10/31 14:17:42;;;;;;;;;;;;;;;;;;5010252;28;19921;-78
2022/10/31 14:20:08;;;;;;;;;;;;;;;;;;5003534;28;19940;-79
2022/10/31 14:22:34;;;;;;;;;;;;;;;;;;5011149;28;19964;-78
2022/10/31 14:25:00;;;;;;;;;;;;;;;;;;5003632;28;19914;-78
2022/10/31 14:27:26;;;;;;;;;;;;;;;;;;5008456;28;19921;-79
2022/10/31 14:29:52;;;;;;;;;;;;;;;;;;5008366;28;19914;-80
2022/10/31 14:32:18;;;;;;;;;;;;;;;;;;5009735;28;19917;-81
2022/10/31 14:34:45;;;;;;;;;;;;;;;;;;5011304;28;19935;-79
2022/10/31 14:37:11;;;;;;;;;;;;;;;;;;5008604;28;19984;-79
2022/10/31 14:39:36;;;;;;;;;;;;;;;;;;5011327;28;20370;-78
2022/10/31 14:42:02;;;;;;;;;;;;;;;;;;5011305;28;19948;-79
2022/10/31 14:44:28;;;;;;;;;;;;;;;;;;5003184;28;20382;-78
2022/10/31 14:46:54;;;;;;;;;;;;;;;;;;5010969;28;19920;-79
2022/10/31 14:49:20;;;;;;;;;;;;;;;;;;5009747;28;19913;-80
2022/10/31 14:51:46;;;;;;;;;;;;;;;;;;5012213;28;20341;-78
2022/10/31 14:54:13;;;;;;;;;;;;;;;;;;5010962;28;19913;-77
2022/10/31 14:56:38;;;;;;;;;;;;;;;;;;5011271;28;19956;-79
2022/10/31 14:59:05;;;;;;;;;;;;;;;;;;5009746;28;19954;-79
2022/10/31 15:01:31;;;;;;;;;;;;;;;;;;5003271;28;19918;-79
2022/10/31 15:03:57;;;;;;;;;;;;;;;;;;5004941;28;19913;-79
2022/10/31 15:06:23;;;;;;;;;;;;;;;;;;5024687;28;20031;-80
2022/10/31 15:08:49;;;;;;;;;;;;;;;;;;5010727;28;20373;-81
2022/10/31 15:11:15;;;;;;;;;;;;;;;;;;5007396;28;20374;-76
2022/10/31 15:13:41;;;;;;;;;;;;;;;;;;5011026;28;20436;-78
2022/10/31 15:16:07;;;;;;;;;;;;;;;;;;5011042;28;19923;-77
2022/10/31 15:18:33;;;;;;;;;;;;;;;;;;5012926;28;19917;-76
2022/10/31 15:20:59;;;;;;;;;;;;;;;;;;5013958;28;19918;-77
2022/10/31 15:23:25;;;;;;;;;;;;;;;;;;5011811;28;19920;-77
2022/10/31 15:25:51;;;;;;;;;;;;;;;;;;5015051;28;19913;-76
2022/10/31 15:28:17;;;;;;;;;;;;;;;;;;5024062;28;19913;-76
2022/10/31 15:30:43;;;;;;;;;;;;;;;;;;5032053;28;19924;-78
2022/10/31 15:33:09;;;;;;;;;;;;;;;;;;5029856;28;19945;-79
2022/10/31 15:35:35;;;;;;;;;;;;;;;;;;5011155;28;19924;-78
2022/10/31 15:38:01;;;;;;;;;;;;;;;;;;5009270;28;20309;-78
2022/10/31 15:40:27;;;;;;;;;;;;;;;;;;5009574;28;19920;-78
2022/10/31 15:42:53;;;;;;;;;;;;;;;;;;5007717;28;20530;-78
2022/10/31 15:45:19;;;;;;;;;;;;;;;;;;5008311;28;19921;-77
2022/10/31 15:47:45;;;;;;;;;;;;;;;;;;5008390;28;19914;-82
2022/10/31 15:50:12;;;;;;;;;;;;;;;;;;5007476;28;19914;-82
2022/10/31 15:52:38;;;;;;;;;;;;;;;;;;5009466;28;20396;-82
2022/10/31 15:55:04;;;;;;;;;;;;;;;;;;5011103;28;19925;-82
2022/10/31 15:57:30;;;;;;;;;;;;;;;;;;5010914;28;19913;-82
2022/10/31 15:59:56;;;;;;;;;;;;;;;;;;5020533;28;19913;-83
2022/10/31 16:02:22;;;;;;;;;;;;;;;;;;5027924;28;19913;-82
2022/10/31 16:04:48;;;;;;;;;;;;;;;;;;5020461;28;19964;-85
2022/10/31 16:07:14;;;;;;;;;;;;;;;;;;5020270;28;19920;-83
2022/10/31 16:09:39;;;;;;;;;;;;;;;;;;5011462;28;19937;-84
2022/10/31 16:12:05;;;;;;;;;;;;;;;;;;5007699;28;19964;-82
2022/10/31 16:14:31;;;;;;;;;;;;;;;;;;5013818;28;19916;-83
2022/10/31 16:16:57;;;;;;;;;;;;;;;;;;5026798;28;19981;-81
2022/10/31 16:19:23;;;;;;;;;;;;;;;;;;5035492;28;19938;-81
2022/10/31 16:21:49;;;;;;;;;;;;;;;;;;5033420;28;19913;-82
2022/10/31 16:24:15;;;;;;;;;;;;;;;;;;5037919;28;19928;-83
2022/10/31 16:26:41;;;;;;;;;;;;;;;;;;5049297;28;19932;-81
2022/10/31 16:29:07;;;;;;;;;;;;;;;;;;5030942;28;19993;-82
2022/10/31 16:31:33;;;;;;;;;;;;;;;;;;5023593;28;20303;-81
2022/10/31 16:33:59;;;;;;;;;;;;;;;;;;5022327;28;19906;-80
2022/10/31 16:36:24;;;;;;;;;;;;;;;;;;5030761;28;19917;-78
2022/10/31 16:38:50;;;;;;;;;;;;;;;;;;5024903;28;19952;-79
2022/10/31 16:41:16;;;;;;;;;;;;;;;;;;5016535;28;20399;-78